createdAt,value
2023-03-13T00:06:20.701Z,203.39
2023-03-13T00:07:20.691Z,207.03
2023-03-13T00:08:20.736Z,207.99
2023-03-13T00:11:20.793Z,200.59
2023-03-13T00:36:21.890Z,204.60
2023-03-13T01:05:21.037Z,210.06
2023-03-13T01:25:21.919Z,208.09
2023-03-13T01:29:21.391Z,206.20
2023-03-13T01:30:21.430Z,204.28
2023-03-13T01:32:21.518Z,205.90
2023-03-13T01:33:21.563Z,205.18
2023-03-13T01:34:21.581Z,209.26
2023-03-13T01:35:21.629Z,210.32
2023-03-13T01:36:21.617Z,210.70
2023-03-13T01:37:21.637Z,209.86
2023-03-13T01:38:21.662Z,206.25
2023-03-13T01:39:21.715Z,205.47
2023-03-13T01:40:21.777Z,210.20
2023-03-13T01:41:21.785Z,210.26
2023-03-13T01:42:21.824Z,209.45
2023-03-13T01:43:26.809Z,207.87
2023-03-13T01:45:21.818Z,208.30
2023-03-13T01:46:21.837Z,208.98
2023-03-13T01:47:21.768Z,210.32
2023-03-13T01:48:21.730Z,208.20
2023-03-13T01:49:21.709Z,209.42
2023-03-13T01:50:21.676Z,207.58
2023-03-13T01:51:21.654Z,205.88
2023-03-13T01:57:21.651Z,208.66
2023-03-13T01:58:21.681Z,208.19
2023-03-13T01:59:21.721Z,205.75
2023-03-13T02:00:21.763Z,208.27
2023-03-13T02:01:21.788Z,206.45
2023-03-13T02:02:21.884Z,210.93
2023-03-13T02:03:21.844Z,212.52
2023-03-13T02:04:21.876Z,209.29
2023-03-13T02:05:21.923Z,212.73
2023-03-13T02:06:21.915Z,208.14
2023-03-13T02:07:21.949Z,210.70
2023-03-13T02:08:21.952Z,210.38
2023-03-13T02:09:21.978Z,208.10
2023-03-13T02:10:22.047Z,209.76
2023-03-13T02:11:22.069Z,209.95
2023-03-13T02:12:22.076Z,211.55
2023-03-13T02:13:22.151Z,209.03
2023-03-13T02:14:22.511Z,210.75
2023-03-13T02:15:22.182Z,215.21
2023-03-13T02:16:22.192Z,211.15
2023-03-13T02:17:22.214Z,209.16
2023-03-13T02:18:22.254Z,211.47
2023-03-13T02:19:22.293Z,212.15
2023-03-13T02:20:22.293Z,210.99
2023-03-13T02:21:22.310Z,208.59
2023-03-13T02:22:22.368Z,207.99
2023-03-13T02:23:22.364Z,210.22
2023-03-13T02:24:22.398Z,208.48
2023-03-13T02:25:22.423Z,209.57
2023-03-13T02:26:22.471Z,208.62
2023-03-13T02:27:22.499Z,211.32
2023-03-13T02:28:22.534Z,209.85
2023-03-13T02:29:22.545Z,209.94
2023-03-13T02:30:22.601Z,210.20
2023-03-13T02:31:22.737Z,206.87
2023-03-13T02:32:22.782Z,206.32
2023-03-13T02:33:22.729Z,206.26
2023-03-13T02:34:22.755Z,206.71
2023-03-13T02:35:22.820Z,207.26
2023-03-13T02:36:22.804Z,206.63
2023-03-13T02:37:22.820Z,208.62
2023-03-13T02:38:22.896Z,207.37
2023-03-13T02:43:23.018Z,206.80
2023-03-13T02:44:23.017Z,205.58
2023-03-13T02:45:23.081Z,206.51
2023-03-13T02:46:23.113Z,206.60
2023-03-13T02:47:23.127Z,209.45
2023-03-13T02:48:23.118Z,209.23
2023-03-13T02:49:23.159Z,211.43
2023-03-13T02:50:23.176Z,207.76
2023-03-13T02:51:23.247Z,207.17
2023-03-13T02:52:23.239Z,207.12
2023-03-13T02:53:23.290Z,207.16
2023-03-13T02:54:23.316Z,204.92
2023-03-13T02:55:23.313Z,203.64
2023-03-13T02:56:23.350Z,201.81
2023-03-13T02:57:23.961Z,201.78
2023-03-13T02:58:23.430Z,202.30
2023-03-13T02:59:23.469Z,203.22
2023-03-13T03:00:23.444Z,203.70
2023-03-13T03:01:23.503Z,200.51
2023-03-13T03:02:23.503Z,198.33
2023-03-13T03:03:23.554Z,197.78
2023-03-13T03:04:23.659Z,199.91
2023-03-13T03:05:23.611Z,200.63
2023-03-13T03:06:23.607Z,202.25
2023-03-13T03:07:23.643Z,201.39
2023-03-13T03:08:23.662Z,203.79
2023-03-13T03:09:23.704Z,202.32
2023-03-13T03:10:23.721Z,203.93
2023-03-13T03:11:23.720Z,201.19
2023-03-13T03:12:23.765Z,201.27
2023-03-13T03:13:23.789Z,200.83
2023-03-13T03:14:23.817Z,198.90
2023-03-13T03:15:23.805Z,195.85
2023-03-13T03:16:23.900Z,198.14
2023-03-13T03:17:23.860Z,194.20
2023-03-13T03:18:23.906Z,195.14
2023-03-13T03:19:23.881Z,199.55
2023-03-13T03:20:24.481Z,196.78
2023-03-13T03:21:23.941Z,198.22
2023-03-13T03:22:23.957Z,198.24
2023-03-13T03:23:24.008Z,199.26
2023-03-13T03:24:23.993Z,199.68
2023-03-13T03:25:23.988Z,200.23
2023-03-13T03:26:24.040Z,199.25
2023-03-13T03:27:24.082Z,199.03
2023-03-13T03:28:24.084Z,196.08
2023-03-13T03:29:24.109Z,194.69
2023-03-13T03:30:24.146Z,194.57
2023-03-13T03:31:24.188Z,193.01
2023-03-13T03:32:24.165Z,195.21
2023-03-13T03:33:24.197Z,197.42
2023-03-13T03:34:24.166Z,194.41
2023-03-13T03:35:24.180Z,196.61
2023-03-13T03:36:24.239Z,196.06
2023-03-13T03:37:24.246Z,199.56
2023-03-13T03:38:24.268Z,200.16
2023-03-13T03:39:24.258Z,198.01
2023-03-13T03:40:24.305Z,198.92
2023-03-13T03:41:24.331Z,201.85
2023-03-13T03:42:24.336Z,198.19
2023-03-13T03:43:24.376Z,196.16
2023-03-13T03:44:24.370Z,194.49
2023-03-13T03:45:24.367Z,196.01
2023-03-13T03:46:24.416Z,194.89
2023-03-13T03:47:24.491Z,198.65
2023-03-13T03:48:24.447Z,196.79
2023-03-13T03:49:24.499Z,198.28
2023-03-13T03:50:24.474Z,197.74
2023-03-13T03:51:24.507Z,195.44
2023-03-13T03:52:24.510Z,198.18
2023-03-13T03:53:24.561Z,195.54
2023-03-13T03:54:24.571Z,196.50
2023-03-13T03:55:24.586Z,193.12
2023-03-13T03:56:24.616Z,192.17
2023-03-13T03:57:24.602Z,192.60
2023-03-13T03:58:24.642Z,192.98
2023-03-13T03:59:24.631Z,191.69
2023-03-13T04:00:24.680Z,190.13
2023-03-13T04:01:24.689Z,188.49
2023-03-13T04:02:24.708Z,187.77
2023-03-13T04:03:24.785Z,192.23
2023-03-13T04:04:24.739Z,190.81
2023-03-13T04:05:24.760Z,192.16
2023-03-13T04:06:24.775Z,189.93
2023-03-13T04:07:24.822Z,191.73
2023-03-13T04:08:24.820Z,188.35
2023-03-13T04:09:24.834Z,189.40
2023-03-13T04:10:24.825Z,193.20
2023-03-13T04:11:24.869Z,194.66
2023-03-13T04:12:24.863Z,193.45
2023-03-13T04:13:24.901Z,190.01
2023-03-13T04:15:24.946Z,188.53
2023-03-13T04:16:24.984Z,187.15
2023-03-13T04:17:24.938Z,187.59
2023-03-13T04:18:24.996Z,188.75
2023-03-13T04:19:25.001Z,191.18
2023-03-13T04:20:24.999Z,189.13
2023-03-13T04:21:24.999Z,186.14
2023-03-13T04:22:25.052Z,187.42
2023-03-13T04:23:25.040Z,185.36
2023-03-13T04:24:25.061Z,187.32
2023-03-13T04:25:25.094Z,184.97
2023-03-13T04:26:25.106Z,188.03
2023-03-13T04:27:25.119Z,186.06
2023-03-13T04:28:25.194Z,184.91
2023-03-13T04:29:25.178Z,188.86
2023-03-13T04:30:25.195Z,185.92
2023-03-13T04:31:25.167Z,187.97
2023-03-13T04:32:25.325Z,185.32
2023-03-13T04:33:25.258Z,183.60
2023-03-13T04:34:25.229Z,184.21
2023-03-13T04:35:25.281Z,182.29
2023-03-13T04:36:25.311Z,183.00
2023-03-13T04:37:25.250Z,181.94
2023-03-13T04:38:25.253Z,183.75
2023-03-13T04:39:25.319Z,185.67
2023-03-13T04:40:25.312Z,185.52
2023-03-13T04:41:25.311Z,185.38
2023-03-13T04:42:25.342Z,181.52
2023-03-13T04:43:25.320Z,183.11
2023-03-13T04:44:25.378Z,183.01
2023-03-13T04:45:25.357Z,183.40
2023-03-13T04:48:25.388Z,179.12
2023-03-13T04:49:25.393Z,180.31
2023-03-13T04:50:25.399Z,177.52
2023-03-13T04:51:25.400Z,177.42
2023-03-13T04:52:25.428Z,179.23
2023-03-13T04:53:25.448Z,180.96
2023-03-13T04:54:25.460Z,173.78
2023-03-13T05:11:25.685Z,173.61
2023-03-13T05:16:25.934Z,175.86
2023-03-13T05:19:25.859Z,173.33
2023-03-13T05:20:25.861Z,175.43
2023-03-13T05:21:25.890Z,171.21
2023-03-13T05:22:25.904Z,171.42
2023-03-13T05:23:25.911Z,173.09
2023-03-13T05:24:25.982Z,172.38
2023-03-13T05:25:25.946Z,169.71
2023-03-13T05:26:25.966Z,171.07
2023-03-13T05:27:25.994Z,172.38
2023-03-13T05:28:25.995Z,173.67
2023-03-13T05:29:26.005Z,172.20
2023-03-13T05:30:26.060Z,174.42
2023-03-13T05:31:26.174Z,174.56
2023-03-13T05:32:26.189Z,172.13
2023-03-13T05:33:26.129Z,171.92
2023-03-13T05:34:26.132Z,173.14
2023-03-13T05:35:26.220Z,168.25
2023-03-13T05:36:26.196Z,168.60
2023-03-13T05:37:26.365Z,171.33
2023-03-13T05:38:26.221Z,169.68
2023-03-13T05:39:26.276Z,171.46
2023-03-13T05:40:26.253Z,171.92
2023-03-13T05:41:26.307Z,167.88
2023-03-13T05:42:26.323Z,172.21
2023-03-13T05:43:26.347Z,171.25
2023-03-13T05:44:26.329Z,169.90
2023-03-13T05:45:26.347Z,170.81
2023-03-13T05:46:26.446Z,168.41
2023-03-13T05:47:26.373Z,172.71
2023-03-13T05:48:26.407Z,170.50
2023-03-13T05:49:26.442Z,171.18
2023-03-13T05:50:26.507Z,169.22
2023-03-13T05:51:26.472Z,167.28
2023-03-13T05:52:26.510Z,169.35
2023-03-13T05:53:26.556Z,166.25
2023-03-13T05:54:26.542Z,169.30
2023-03-13T05:55:26.609Z,168.65
2023-03-13T05:56:26.635Z,168.36
2023-03-13T05:57:26.620Z,168.79
2023-03-13T05:58:26.666Z,170.23
2023-03-13T05:59:26.711Z,171.27
2023-03-13T06:00:26.724Z,171.14
2023-03-13T06:01:33.779Z,171.51
2023-03-13T06:02:26.763Z,171.80
2023-03-13T06:03:26.750Z,172.04
2023-03-13T06:04:26.884Z,172.53
2023-03-13T06:05:26.670Z,170.45
2023-03-13T06:06:26.683Z,173.22
2023-03-13T06:07:26.631Z,173.07
2023-03-13T06:08:26.617Z,171.86
2023-03-13T06:09:26.574Z,172.63
2023-03-13T06:10:26.569Z,168.30
2023-03-13T06:11:26.560Z,172.09
2023-03-13T06:12:26.511Z,172.12
2023-03-13T06:13:26.479Z,169.81
2023-03-13T06:14:26.475Z,171.49
2023-03-13T06:15:26.432Z,170.88
2023-03-13T06:16:26.515Z,173.31
2023-03-13T06:17:26.370Z,169.76
2023-03-13T06:18:26.351Z,173.83
2023-03-13T06:19:26.330Z,177.56
2023-03-13T06:20:26.325Z,178.08
2023-03-13T06:31:26.321Z,181.16
2023-03-13T06:32:26.360Z,232.75
2023-03-13T06:33:26.344Z,239.72
2023-03-13T06:34:26.563Z,230.09
2023-03-13T06:35:26.428Z,215.46
2023-03-13T06:36:26.408Z,203.27
2023-03-13T06:37:26.420Z,198.99
2023-03-13T06:38:26.451Z,199.36
2023-03-13T06:39:26.611Z,205.56
2023-03-13T06:40:27.459Z,200.78
2023-03-13T06:41:26.422Z,193.70
2023-03-13T06:42:26.384Z,195.56
2023-03-13T06:43:26.348Z,188.02
2023-03-13T06:44:26.320Z,182.54
2023-03-13T06:45:26.284Z,178.41
2023-03-13T06:46:33.303Z,186.80
2023-03-13T06:47:26.261Z,187.39
2023-03-13T06:48:26.256Z,189.39
2023-03-13T06:49:26.246Z,193.04
2023-03-13T06:50:26.225Z,200.89
2023-03-13T06:53:26.164Z,219.91
2023-03-13T06:54:26.156Z,223.44
2023-03-13T06:55:26.150Z,225.88
2023-03-13T06:56:26.082Z,239.59
2023-03-13T06:57:26.062Z,250.00
2023-03-13T06:58:32.630Z,250.00
2023-03-13T06:59:26.993Z,250.45
2023-03-13T07:00:26.138Z,251.92
2023-03-13T07:01:26.083Z,256.16
2023-03-13T07:02:25.886Z,264.29
2023-03-13T07:03:25.910Z,278.09
2023-03-13T07:04:25.815Z,261.62
2023-03-13T07:05:25.775Z,247.82
2023-03-13T07:06:25.785Z,249.03
2023-03-13T07:07:31.866Z,250.00
2023-03-13T07:08:26.690Z,250.17
2023-03-13T07:12:25.562Z,266.85
2023-03-13T07:13:25.535Z,249.42
2023-03-13T07:14:25.511Z,249.88
2023-03-13T07:15:25.598Z,248.08
2023-03-13T07:16:25.438Z,239.83
2023-03-13T07:17:25.428Z,250.51
2023-03-13T07:18:25.386Z,248.85
2023-03-13T07:19:25.290Z,250.01
2023-03-13T07:20:25.331Z,237.87
2023-03-13T07:21:25.316Z,229.30
2023-03-13T07:22:25.224Z,230.36
2023-03-13T07:23:25.195Z,220.88
2023-03-13T07:24:25.275Z,231.88
2023-03-13T07:25:25.639Z,224.72
2023-03-13T07:26:25.110Z,225.21
2023-03-13T07:27:25.213Z,222.27
2023-03-13T07:28:25.174Z,213.70
2023-03-13T07:29:25.160Z,212.37
2023-03-13T07:30:25.203Z,202.76
2023-03-13T07:31:25.276Z,203.72
2023-03-13T07:32:25.370Z,209.42
2023-03-13T07:33:25.248Z,203.69
2023-03-13T08:23:24.678Z,175.98
2023-03-13T08:27:24.626Z,208.55
2023-03-13T08:28:24.590Z,212.73
2023-03-13T08:29:24.568Z,215.03
2023-03-13T08:30:24.640Z,214.87
2023-03-13T08:31:24.560Z,221.51
2023-03-13T08:32:24.582Z,187.22
2023-03-13T08:33:24.571Z,176.54
2023-03-13T08:34:24.532Z,184.56
2023-03-13T08:36:24.513Z,202.42
2023-03-13T08:37:24.511Z,208.73
2023-03-13T08:38:24.530Z,210.45
2023-03-13T08:39:24.534Z,213.77
2023-03-13T08:40:24.556Z,212.63
2023-03-13T08:41:24.589Z,204.35
2023-03-13T08:42:24.581Z,211.62
2023-03-13T08:43:24.629Z,220.40
2023-03-13T08:44:24.613Z,208.15
2023-03-13T08:45:24.603Z,205.88
2023-03-13T10:33:26.168Z,64.80
2023-03-13T10:34:26.146Z,49.43
2023-03-13T10:35:26.128Z,24.66
2023-03-13T10:36:26.138Z,30.39
2023-03-13T10:37:26.126Z,30.86
2023-03-13T10:38:26.094Z,70.29
2023-03-13T10:39:26.082Z,88.03
2023-03-13T10:40:26.061Z,96.32
2023-03-13T10:41:26.065Z,72.59
2023-03-13T10:42:26.203Z,78.35
2023-03-13T10:43:26.090Z,117.03
2023-03-13T10:47:26.068Z,97.75
2023-03-13T10:48:26.024Z,115.00
2023-03-13T10:49:26.131Z,127.24
2023-03-13T10:50:26.057Z,129.58
2023-03-13T10:51:26.102Z,137.84
2023-03-13T10:52:26.239Z,137.82
2023-03-13T10:53:26.034Z,144.53
2023-03-13T10:54:26.061Z,150.71
2023-03-13T10:55:26.047Z,122.38
2023-03-13T10:56:26.077Z,92.52
2023-03-13T10:57:26.201Z,89.22
2023-03-13T10:59:26.722Z,42.76
2023-03-13T11:00:27.157Z,24.29
2023-03-13T11:01:26.401Z,49.72
2023-03-13T11:02:26.382Z,89.06
2023-03-13T11:03:26.145Z,108.67
2023-03-13T11:04:26.006Z,114.38
2023-03-13T11:05:26.006Z,124.89
2023-03-13T11:06:26.029Z,149.65
2023-03-13T11:07:26.018Z,156.70
2023-03-13T11:08:26.043Z,166.67
2023-03-13T11:09:26.041Z,172.46
2023-03-13T11:10:26.056Z,176.23
2023-03-13T11:11:26.071Z,179.37
2023-03-13T11:12:26.167Z,184.26
2023-03-13T11:13:35.991Z,175.65
2023-03-13T11:14:27.157Z,112.38
2023-03-13T11:15:26.130Z,127.02
2023-03-13T11:16:26.201Z,132.66
2023-03-13T11:17:26.063Z,148.26
2023-03-13T11:18:26.037Z,162.65
2023-03-13T11:19:26.010Z,168.27
2023-03-13T11:20:25.967Z,176.54
2023-03-13T11:21:25.959Z,180.90
2023-03-13T11:22:26.008Z,182.30
2023-03-13T11:23:25.924Z,183.21
2023-03-13T11:24:25.990Z,186.83
2023-03-13T11:25:25.967Z,186.61
2023-03-13T11:26:26.032Z,188.20
2023-03-13T11:27:26.296Z,190.39
2023-03-13T11:28:26.039Z,192.15
2023-03-13T11:29:26.123Z,192.32
2023-03-13T11:30:26.108Z,193.71
2023-03-13T11:31:26.193Z,191.95
2023-03-13T11:32:26.225Z,197.38
2023-03-13T11:33:26.256Z,195.07
2023-03-13T11:34:26.207Z,180.71
2023-03-13T11:35:26.214Z,153.23
2023-03-13T11:36:26.290Z,99.85
2023-03-13T11:37:26.334Z,29.62
2023-03-13T11:38:26.312Z,0.96
2023-03-13T11:40:26.277Z,15.02
2023-03-13T11:41:26.383Z,45.27
2023-03-13T11:42:26.445Z,33.06
2023-03-13T11:43:26.729Z,30.58
2023-03-13T11:44:26.434Z,38.62
2023-03-13T11:45:26.542Z,49.12
2023-03-13T11:46:26.558Z,51.82
2023-03-13T11:47:26.542Z,62.73
2023-03-13T11:48:26.769Z,41.48
2023-03-13T11:49:26.584Z,37.18
2023-03-13T11:50:26.632Z,26.89
2023-03-13T11:51:26.890Z,26.06
2023-03-13T11:52:26.699Z,25.95
2023-03-13T11:53:26.675Z,21.05
2023-03-13T11:54:26.707Z,22.52
2023-03-13T11:55:26.725Z,26.25
2023-03-13T11:56:26.735Z,24.69
2023-03-13T11:57:26.788Z,34.20
2023-03-13T11:58:27.235Z,47.00
2023-03-13T11:59:26.859Z,44.75
2023-03-13T12:00:26.904Z,55.42
2023-03-13T12:01:26.955Z,69.27
2023-03-13T12:02:26.999Z,76.96
2023-03-13T12:03:27.008Z,90.20
2023-03-13T12:04:27.045Z,98.09
2023-03-13T12:05:27.039Z,94.51
2023-03-13T12:06:28.589Z,84.86
2023-03-13T12:07:27.002Z,74.49
2023-03-13T12:08:27.231Z,24.23
2023-03-13T12:09:28.297Z,5.95
2023-03-13T12:10:27.011Z,28.53
2023-03-13T12:11:27.018Z,48.38
2023-03-13T12:12:27.026Z,56.05
2023-03-13T12:13:27.035Z,72.69
2023-03-13T12:14:27.004Z,80.01
2023-03-13T12:15:27.017Z,91.07
2023-03-13T12:16:27.034Z,99.73
2023-03-13T12:17:27.051Z,81.51
2023-03-13T12:18:27.737Z,62.96
2023-03-13T12:19:27.259Z,68.32
2023-03-13T12:20:27.002Z,92.31
2023-03-13T12:21:27.082Z,79.35
2023-03-13T12:22:27.087Z,64.96
2023-03-13T12:23:27.184Z,40.94
2023-03-13T12:24:27.178Z,45.46
2023-03-13T12:25:27.286Z,56.08
2023-03-13T12:26:27.184Z,65.52
2023-03-13T12:27:27.251Z,40.60
2023-03-13T12:28:27.233Z,24.69
2023-03-13T12:29:27.276Z,20.40
2023-03-13T12:30:27.244Z,0.00
2023-03-13T12:31:27.172Z,0.00
2023-03-13T12:32:27.200Z,26.74
2023-03-13T12:33:27.168Z,35.07
2023-03-13T12:34:27.290Z,47.02
2023-03-13T12:35:27.113Z,25.00
2023-03-13T12:36:27.186Z,25.17
2023-03-13T12:37:27.138Z,16.58
2023-03-13T12:38:27.124Z,25.73
2023-03-13T12:39:27.276Z,27.32
2023-03-13T12:40:27.079Z,32.20
2023-03-13T12:41:27.085Z,38.93
2023-03-13T12:42:27.093Z,26.41
2023-03-13T12:43:27.068Z,19.48
2023-03-13T12:44:27.085Z,26.99
2023-03-13T12:45:27.155Z,26.87
2023-03-13T12:46:27.124Z,30.17
2023-03-13T12:47:28.104Z,38.40
2023-03-13T12:48:27.104Z,51.00
2023-03-13T12:49:27.045Z,67.43
2023-03-13T12:50:27.057Z,73.19
2023-03-13T12:51:27.063Z,67.42
2023-03-13T12:52:27.029Z,67.35
2023-03-13T12:53:27.041Z,72.01
2023-03-13T12:54:27.279Z,62.09
2023-03-13T12:55:27.042Z,45.31
2023-03-13T12:56:27.025Z,42.14
2023-03-13T12:57:27.087Z,44.04
2023-03-13T12:58:27.029Z,25.70
2023-03-13T12:59:27.030Z,29.38
2023-03-13T13:00:27.001Z,55.17
2023-03-13T13:01:27.107Z,47.75
2023-03-13T13:03:26.999Z,34.59
2023-03-13T13:04:27.036Z,41.43
2023-03-13T13:05:27.692Z,29.09
2023-03-13T13:06:26.982Z,25.64
2023-03-13T13:07:26.979Z,40.90
2023-03-13T13:08:26.968Z,49.17
2023-03-13T13:09:26.998Z,55.61
2023-03-13T13:10:26.953Z,55.90
2023-03-13T13:11:26.928Z,57.66
2023-03-13T13:12:26.941Z,61.46
2023-03-13T13:13:26.943Z,68.04
2023-03-13T13:14:26.900Z,75.05
2023-03-13T13:15:26.905Z,70.02
2023-03-13T13:16:26.918Z,60.22
2023-03-13T13:17:26.858Z,38.01
2023-03-13T13:18:26.860Z,32.96
2023-03-13T13:19:26.849Z,17.32
2023-03-13T13:20:26.861Z,2.81
2023-03-13T13:21:26.849Z,14.66
2023-03-13T13:22:26.874Z,30.68
2023-03-13T13:23:26.792Z,33.06
2023-03-13T13:24:26.828Z,41.91
2023-03-13T13:25:26.831Z,50.58
2023-03-13T13:26:26.819Z,52.96
2023-03-13T13:27:26.796Z,54.65
2023-03-13T13:28:26.824Z,58.46
2023-03-13T13:29:26.808Z,39.44
2023-03-13T13:30:26.851Z,33.05
2023-03-13T13:31:26.915Z,21.72
2023-03-13T13:32:26.836Z,25.94
2023-03-13T13:33:26.793Z,38.21
2023-03-13T13:34:26.788Z,49.56
2023-03-13T13:35:26.783Z,49.26
2023-03-13T13:36:26.801Z,54.47
2023-03-13T13:37:26.883Z,58.74
2023-03-13T13:38:26.753Z,63.07
2023-03-13T13:39:26.802Z,80.84
2023-03-13T13:48:26.642Z,108.53
2023-03-13T13:49:26.667Z,109.42
2023-03-13T13:50:26.671Z,116.00
2023-03-13T13:51:26.672Z,122.39
2023-03-13T13:52:26.637Z,115.59
2023-03-13T13:53:26.609Z,113.66
2023-03-13T13:54:26.666Z,115.45
2023-03-13T13:55:26.687Z,119.53
2023-03-13T13:56:26.863Z,119.60
2023-03-13T13:57:26.733Z,118.31
2023-03-13T13:58:26.767Z,113.25
2023-03-13T13:59:26.761Z,112.67
2023-03-13T14:00:26.795Z,113.67
2023-03-13T14:01:26.829Z,109.89
2023-03-13T14:02:26.768Z,108.27
2023-03-13T14:03:26.761Z,74.61
2023-03-13T14:04:26.761Z,77.06
2023-03-13T14:05:26.935Z,81.76
2023-03-13T14:06:26.848Z,87.58
2023-03-13T14:07:26.865Z,95.85
2023-03-13T14:08:26.931Z,104.85
2023-03-13T14:09:26.987Z,102.57
2023-03-13T14:10:27.022Z,101.82
2023-03-13T14:11:27.076Z,103.02
2023-03-13T14:12:27.305Z,103.17
2023-03-13T14:13:27.122Z,101.73
2023-03-13T14:14:27.155Z,98.17
2023-03-13T14:21:27.087Z,71.39
2023-03-13T14:22:27.108Z,66.80
2023-03-13T14:23:27.057Z,70.36
2023-03-13T14:24:27.076Z,72.61
2023-03-13T14:25:27.089Z,67.18
2023-03-13T14:26:27.089Z,61.24
2023-03-13T14:27:27.098Z,62.93
2023-03-13T14:28:27.072Z,66.90
2023-03-13T14:29:27.141Z,68.28
2023-03-13T14:30:27.052Z,68.99
2023-03-13T14:31:27.075Z,67.63
2023-03-13T14:32:27.110Z,69.29
2023-03-13T14:33:27.086Z,68.09
2023-03-13T15:44:26.762Z,70.77
2023-03-13T15:45:26.773Z,69.33
2023-03-13T15:46:26.816Z,67.55
2023-03-13T15:47:26.758Z,66.10
2023-03-13T15:48:26.792Z,70.41
2023-03-13T15:49:26.784Z,68.71
2023-03-13T15:50:26.835Z,72.11
2023-03-13T15:51:26.838Z,69.76
2023-03-13T15:52:26.792Z,71.30
2023-03-13T15:53:26.849Z,73.36
2023-03-13T15:54:26.811Z,72.58
2023-03-13T15:55:26.795Z,68.30
2023-03-13T15:56:26.804Z,62.70
2023-03-13T15:58:26.787Z,73.39
2023-03-13T16:00:26.797Z,73.78
2023-03-13T16:01:26.918Z,71.72
2023-03-13T16:02:26.827Z,66.49
2023-03-13T16:03:26.828Z,69.58
2023-03-13T16:04:26.911Z,74.27
2023-03-13T16:05:26.852Z,73.41
2023-03-13T16:06:26.844Z,70.87
2023-03-13T16:07:26.856Z,74.73
2023-03-13T16:08:35.267Z,70.32
2023-03-13T16:10:26.820Z,70.51
2023-03-13T16:11:26.788Z,71.44
2023-03-13T16:12:26.777Z,70.66
2023-03-13T16:13:26.778Z,71.57
2023-03-13T16:14:26.754Z,71.85
2023-03-13T16:15:26.736Z,71.04
2023-03-13T16:16:26.757Z,72.78
2023-03-13T16:17:26.718Z,69.03
2023-03-13T16:18:26.689Z,62.04
2023-03-13T16:19:26.667Z,62.14
2023-03-13T16:20:26.668Z,63.55
2023-03-13T16:21:26.606Z,70.06
2023-03-13T16:22:26.601Z,70.43
2023-03-13T16:23:26.581Z,71.24
2023-03-13T16:24:26.583Z,72.39
2023-03-13T16:25:26.563Z,71.26
2023-03-13T16:26:26.574Z,73.22
2023-03-13T16:27:26.519Z,70.00
2023-03-13T16:28:26.537Z,57.76
2023-03-13T16:29:26.477Z,59.56
2023-03-13T16:30:26.909Z,61.32
2023-03-13T16:31:26.548Z,49.24
2023-03-13T16:32:27.463Z,48.29
2023-03-13T16:33:26.489Z,51.10
2023-03-13T16:35:26.599Z,57.15
2023-03-13T16:36:26.532Z,63.36
2023-03-13T16:37:26.535Z,56.28
2023-03-13T16:38:26.598Z,55.80
2023-03-13T16:39:26.577Z,57.02
2023-03-13T16:40:26.593Z,55.35
2023-03-13T16:41:26.596Z,51.36
2023-03-13T16:50:26.799Z,39.50
2023-03-13T16:51:26.845Z,35.16
2023-03-13T16:52:26.822Z,39.87
2023-03-13T16:53:26.863Z,34.58
2023-03-13T16:54:26.875Z,35.91
2023-03-13T16:55:26.902Z,33.31
2023-03-13T16:56:27.016Z,31.67
2023-03-13T16:57:26.987Z,23.02
2023-03-13T16:58:26.998Z,27.55
2023-03-13T16:59:26.971Z,32.84
2023-03-13T17:00:27.008Z,30.69
2023-03-13T17:01:27.048Z,36.59
2023-03-13T17:02:27.075Z,39.13
2023-03-13T17:03:27.060Z,39.53
2023-03-13T17:04:27.126Z,37.40
2023-03-13T17:05:27.138Z,39.89
2023-03-13T17:06:27.114Z,37.01
2023-03-13T17:07:27.130Z,25.00
2023-03-13T17:08:27.164Z,29.42
2023-03-13T17:09:27.261Z,34.68
2023-03-13T17:10:27.253Z,35.40
2023-03-13T17:11:27.242Z,36.20
2023-03-13T17:12:27.258Z,28.42
2023-03-13T17:13:27.292Z,27.51
2023-03-13T17:14:27.343Z,28.62
2023-03-13T17:15:27.353Z,30.71
2023-03-13T17:16:27.389Z,34.40
2023-03-13T17:17:27.424Z,26.80
2023-03-13T17:18:27.452Z,29.89
2023-03-13T17:19:27.477Z,30.72
2023-03-13T17:20:27.522Z,28.41
2023-03-13T17:21:27.528Z,27.90
2023-03-13T17:22:27.509Z,27.75
2023-03-13T17:23:27.579Z,31.33
2023-03-13T17:24:27.623Z,32.06
2023-03-13T17:25:27.616Z,36.41
2023-03-13T17:26:27.677Z,36.31
2023-03-13T17:27:27.666Z,36.96
2023-03-13T17:28:27.707Z,35.52
2023-03-13T17:29:27.694Z,42.21
2023-03-13T17:30:27.752Z,41.99
2023-03-13T17:31:27.843Z,45.29
2023-03-13T17:32:27.919Z,42.74
2023-03-13T17:33:27.837Z,49.06
2023-03-13T17:39:27.992Z,61.43
2023-03-13T17:40:28.032Z,67.34
2023-03-13T17:41:28.103Z,68.72
2023-03-13T17:42:28.057Z,54.53
2023-03-13T17:43:28.066Z,62.41
2023-03-13T17:59:29.395Z,60.87
2023-03-13T18:00:28.465Z,61.95
2023-03-13T18:02:28.528Z,62.42
2023-03-13T18:03:28.551Z,57.03
2023-03-13T18:04:28.568Z,59.96
2023-03-13T18:05:28.643Z,60.86
2023-03-13T18:06:28.623Z,66.66
2023-03-13T18:07:28.651Z,66.21
2023-03-13T18:08:28.634Z,57.67
2023-03-13T18:09:28.720Z,57.21
2023-03-13T18:10:28.697Z,55.37
2023-03-13T18:11:28.763Z,54.11
2023-03-13T18:12:28.758Z,60.40
2023-03-13T18:13:28.787Z,62.10
2023-03-13T18:14:28.784Z,64.34
2023-03-13T18:15:28.812Z,67.37
2023-03-13T18:16:28.927Z,64.62
2023-03-13T18:17:28.885Z,65.56
2023-03-13T18:18:28.940Z,67.45
2023-03-13T18:19:28.949Z,64.24
2023-03-13T18:23:29.077Z,43.48
2023-03-13T18:24:29.058Z,47.85
2023-03-13T18:25:29.136Z,51.87
2023-03-13T18:26:29.162Z,47.11
2023-03-13T18:27:29.156Z,49.08
2023-03-13T18:28:29.204Z,40.50
2023-03-13T18:29:29.447Z,46.20
2023-03-13T18:30:29.271Z,53.57
2023-03-13T18:31:29.347Z,57.08
2023-03-13T18:32:29.416Z,60.38
2023-03-13T18:33:29.341Z,63.23
2023-03-13T18:34:29.399Z,59.82
2023-03-13T18:35:29.408Z,48.14
2023-03-13T18:36:29.430Z,47.45
2023-03-13T18:37:29.470Z,48.15
2023-03-13T18:38:29.490Z,53.70
2023-03-13T18:39:29.522Z,51.05
2023-03-13T18:40:29.541Z,49.04
2023-03-13T18:52:29.913Z,56.00
2023-03-13T18:53:29.953Z,55.20
2023-03-13T18:54:29.953Z,64.48
2023-03-13T18:55:30.913Z,65.24
2023-03-13T18:56:30.058Z,60.27
2023-03-13T18:57:30.055Z,68.95
2023-03-13T18:58:30.087Z,73.02
2023-03-13T18:59:30.145Z,64.72
2023-03-13T19:00:31.067Z,65.60
2023-03-13T19:07:30.415Z,71.33
2023-03-13T19:08:30.444Z,71.86
2023-03-13T19:09:44.723Z,75.83
2023-03-13T19:10:31.537Z,74.10
2023-03-13T19:11:30.476Z,60.57
2023-03-13T19:15:30.463Z,68.73
2023-03-13T19:16:30.480Z,72.47
2023-03-13T19:17:30.408Z,71.38
2023-03-13T19:19:30.415Z,68.23
2023-03-13T19:20:30.383Z,59.19
2023-03-13T19:21:30.387Z,45.55
2023-03-13T19:22:30.432Z,30.42
2023-03-13T19:23:30.466Z,32.99
2023-03-13T19:24:30.502Z,49.88
2023-03-13T19:25:30.550Z,55.93
2023-03-13T19:26:30.569Z,47.28
2023-03-13T19:27:30.608Z,47.74
2023-03-13T19:28:30.669Z,54.88
2023-03-13T19:29:30.695Z,46.25
2023-03-13T19:30:30.729Z,41.34
2023-03-13T19:31:30.779Z,51.90
2023-03-13T19:41:31.117Z,61.77
2023-03-13T19:42:31.161Z,65.75
2023-03-13T19:43:31.157Z,69.08
2023-03-13T19:44:31.210Z,71.75
2023-03-13T19:45:31.260Z,75.19
2023-03-13T19:46:31.288Z,79.94
2023-03-13T19:47:31.318Z,73.92
2023-03-13T19:48:31.376Z,67.35
2023-03-13T19:49:31.447Z,64.69
2023-03-13T19:51:31.523Z,76.15
2023-03-13T19:55:31.651Z,74.74
2023-03-13T19:56:31.724Z,72.39
2023-03-13T19:57:31.717Z,77.03
2023-03-13T19:58:31.763Z,80.31
2023-03-13T19:59:31.852Z,87.55
2023-03-13T20:00:31.851Z,68.19
2023-03-13T20:01:31.873Z,69.70
2023-03-13T20:02:31.943Z,72.14
2023-03-13T20:03:31.945Z,76.81
2023-03-13T20:04:32.002Z,72.43
2023-03-13T20:05:32.034Z,63.75
2023-03-13T20:06:32.045Z,72.64
2023-03-13T20:07:32.103Z,74.73
2023-03-13T20:08:32.156Z,74.52
2023-03-13T20:09:32.913Z,79.60
2023-03-13T20:10:32.232Z,75.67
2023-03-13T20:11:32.283Z,84.73
2023-03-13T20:12:32.318Z,81.84